sensor_id;sensor_type;location;lat;lon;timestamp;temperature;humidity
69938;DHT22;57248;47.320;15.998;2024-02-15T00:01:48;1.08;92.72
69938;DHT22;57248;47.320;15.998;2024-02-15T00:04:14;1.03;92.19
69938;DHT22;57248;47.320;15.998;2024-02-15T00:06:46;0.95;92.65
69938;DHT22;57248;47.320;15.998;2024-02-15T00:09:18;0.85;92.74
69938;DHT22;57248;47.320;15.998;2024-02-15T00:11:50;0.77;93.84
69938;DHT22;57248;47.320;15.998;2024-02-15T00:14:22;0.74;93.97
69938;DHT22;57248;47.320;15.998;2024-02-15T00:16:54;0.88;93.50
69938;DHT22;57248;47.320;15.998;2024-02-15T00:19:26;0.90;92.74
69938;DHT22;57248;47.320;15.998;2024-02-15T00:22:01;0.88;93.02
69938;DHT22;57248;47.320;15.998;2024-02-15T00:24:36;0.90;92.71
69938;DHT22;57248;47.320;15.998;2024-02-15T00:27:15;0.77;92.28
69938;DHT22;57248;47.320;15.998;2024-02-15T00:29:48;0.73;92.24
69938;DHT22;57248;47.320;15.998;2024-02-15T00:32:27;0.79;92.52
69938;DHT22;57248;47.320;15.998;2024-02-15T00:34:59;0.74;92.40
69938;DHT22;57248;47.320;15.998;2024-02-15T00:37:25;0.72;92.48
69938;DHT22;57248;47.320;15.998;2024-02-15T00:39:57;0.73;93.15
69938;DHT22;57248;47.320;15.998;2024-02-15T00:42:30;0.81;92.57
69938;DHT22;57248;47.320;15.998;2024-02-15T00:45:05;0.88;92.99
69938;DHT22;57248;47.320;15.998;2024-02-15T00:47:37;0.93;93.63
69938;DHT22;57248;47.320;15.998;2024-02-15T00:50:13;0.90;93.97
69938;DHT22;57248;47.320;15.998;2024-02-15T00:52:45;0.93;94.21
69938;DHT22;57248;47.320;15.998;2024-02-15T00:55:12;0.87;93.48
69938;DHT22;57248;47.320;15.998;2024-02-15T00:57:44;0.81;93.67
69938;DHT22;57248;47.320;15.998;2024-02-15T01:00:16;0.90;93.77
69938;DHT22;57248;47.320;15.998;2024-02-15T01:02:52;0.74;94.87
69938;DHT22;57248;47.320;15.998;2024-02-15T01:05:24;0.87;94.20
69938;DHT22;57248;47.320;15.998;2024-02-15T01:07:50;0.83;94.35
69938;DHT22;57248;47.320;15.998;2024-02-15T01:10:22;0.90;94.04
69938;DHT22;57248;47.320;15.998;2024-02-15T01:12:55;0.79;94.34
69938;DHT22;57248;47.320;15.998;2024-02-15T01:15:27;0.88;94.62
69938;DHT22;57248;47.320;15.998;2024-02-15T01:17:59;1.01;94.48
69938;DHT22;57248;47.320;15.998;2024-02-15T01:20:33;1.05;94.30
69938;DHT22;57248;47.320;15.998;2024-02-15T01:23:04;1.07;94.59
69938;DHT22;57248;47.320;15.998;2024-02-15T01:25:39;1.08;94.75
69938;DHT22;57248;47.320;15.998;2024-02-15T01:28:18;1.13;94.17
69938;DHT22;57248;47.320;15.998;2024-02-15T01:30:50;1.09;94.14
69938;DHT22;57248;47.320;15.998;2024-02-15T01:33:22;1.04;93.67
69938;DHT22;57248;47.320;15.998;2024-02-15T01:35:48;1.00;93.89
69938;DHT22;57248;47.320;15.998;2024-02-15T01:38:20;0.97;93.90
69938;DHT22;57248;47.320;15.998;2024-02-15T01:40:47;0.98;93.66
69938;DHT22;57248;47.320;15.998;2024-02-15T01:43:18;0.93;93.02
69938;DHT22;57248;47.320;15.998;2024-02-15T01:45:50;0.97;93.56
69938;DHT22;57248;47.320;15.998;2024-02-15T01:48:22;0.94;93.14
69938;DHT22;57248;47.320;15.998;2024-02-15T01:50:54;0.87;93.15
69938;DHT22;57248;47.320;15.998;2024-02-15T01:53:27;0.85;93.84
69938;DHT22;57248;47.320;15.998;2024-02-15T01:55:54;0.87;93.83
69938;DHT22;57248;47.320;15.998;2024-02-15T01:58:30;0.88;93.57
69938;DHT22;57248;47.320;15.998;2024-02-15T02:01:05;0.93;94.38
69938;DHT22;57248;47.320;15.998;2024-02-15T02:03:36;0.94;94.02
69938;DHT22;57248;47.320;15.998;2024-02-15T02:06:09;0.95;94.42
69938;DHT22;57248;47.320;15.998;2024-02-15T02:08:41;1.00;94.07
69938;DHT22;57248;47.320;15.998;2024-02-15T02:11:14;1.08;94.16
69938;DHT22;57248;47.320;15.998;2024-02-15T02:13:46;1.07;94.71
69938;DHT22;57248;47.320;15.998;2024-02-15T02:16:27;0.95;95.20
69938;DHT22;57248;47.320;15.998;2024-02-15T02:19:01;1.05;95.27
69938;DHT22;57248;47.320;15.998;2024-02-15T02:21:27;1.20;95.24
69938;DHT22;57248;47.320;15.998;2024-02-15T02:24:02;1.24;95.13
69938;DHT22;57248;47.320;15.998;2024-02-15T02:26:40;1.27;94.73
69938;DHT22;57248;47.320;15.998;2024-02-15T02:29:12;1.32;94.63
69938;DHT22;57248;47.320;15.998;2024-02-15T02:31:53;1.36;94.44
69938;DHT22;57248;47.320;15.998;2024-02-15T02:34:25;1.39;94.47
69938;DHT22;57248;47.320;15.998;2024-02-15T02:36:57;1.35;95.01
69938;DHT22;57248;47.320;15.998;2024-02-15T02:39:29;1.39;95.12
69938;DHT22;57248;47.320;15.998;2024-02-15T02:42:03;1.45;94.46
69938;DHT22;57248;47.320;15.998;2024-02-15T02:44:35;1.49;95.03
69938;DHT22;57248;47.320;15.998;2024-02-15T02:47:01;1.55;94.92
69938;DHT22;57248;47.320;15.998;2024-02-15T02:49:37;1.56;94.84
69938;DHT22;57248;47.320;15.998;2024-02-15T02:52:08;1.59;94.65
69938;DHT22;57248;47.320;15.998;2024-02-15T02:54:40;1.51;95.00
69938;DHT22;57248;47.320;15.998;2024-02-15T02:57:12;1.44;95.36
69938;DHT22;57248;47.320;15.998;2024-02-15T02:59:44;1.42;95.89
69938;DHT22;57248;47.320;15.998;2024-02-15T03:02:16;1.36;96.16
69938;DHT22;57248;47.320;15.998;2024-02-15T03:04:49;1.53;95.55
69938;DHT22;57248;47.320;15.998;2024-02-15T03:07:15;1.63;95.11
69938;DHT22;57248;47.320;15.998;2024-02-15T03:09:49;1.63;94.80
69938;DHT22;57248;47.320;15.998;2024-02-15T03:12:15;1.63;94.73
69938;DHT22;57248;47.320;15.998;2024-02-15T03:14:49;1.69;94.61
69938;DHT22;57248;47.320;15.998;2024-02-15T03:17:23;1.63;94.70
69938;DHT22;57248;47.320;15.998;2024-02-15T03:19:55;1.66;94.49
69938;DHT22;57248;47.320;15.998;2024-02-15T03:22:21;1.67;94.59
69938;DHT22;57248;47.320;15.998;2024-02-15T03:24:55;1.67;94.74
69938;DHT22;57248;47.320;15.998;2024-02-15T03:27:27;1.65;94.51
69938;DHT22;57248;47.320;15.998;2024-02-15T03:29:59;1.60;94.85
69938;DHT22;57248;47.320;15.998;2024-02-15T03:32:25;1.65;94.86
69938;DHT22;57248;47.320;15.998;2024-02-15T03:34:58;1.67;95.05
69938;DHT22;57248;47.320;15.998;2024-02-15T03:37:31;1.74;95.19
69938;DHT22;57248;47.320;15.998;2024-02-15T03:40:06;1.77;95.27
69938;DHT22;57248;47.320;15.998;2024-02-15T03:42:37;1.77;95.20
69938;DHT22;57248;47.320;15.998;2024-02-15T03:45:09;1.83;95.06
69938;DHT22;57248;47.320;15.998;2024-02-15T03:47:43;1.82;94.96
69938;DHT22;57248;47.320;15.998;2024-02-15T03:50:15;1.92;95.09
69938;DHT22;57248;47.320;15.998;2024-02-15T03:52:41;1.89;95.06
69938;DHT22;57248;47.320;15.998;2024-02-15T03:55:13;1.92;94.82
69938;DHT22;57248;47.320;15.998;2024-02-15T03:57:45;1.94;94.98
69938;DHT22;57248;47.320;15.998;2024-02-15T04:00:18;1.97;94.58
69938;DHT22;57248;47.320;15.998;2024-02-15T04:02:52;1.94;95.01
69938;DHT22;57248;47.320;15.998;2024-02-15T04:05:25;1.96;95.35
69938;DHT22;57248;47.320;15.998;2024-02-15T04:07:57;1.96;95.45
69938;DHT22;57248;47.320;15.998;2024-02-15T04:10:30;1.99;95.09
69938;DHT22;57248;47.320;15.998;2024-02-15T04:13:02;2.00;94.88
69938;DHT22;57248;47.320;15.998;2024-02-15T04:15:28;2.02;94.94
69938;DHT22;57248;47.320;15.998;2024-02-15T04:18:07;2.07;95.03
69938;DHT22;57248;47.320;15.998;2024-02-15T04:20:40;2.10;94.67
69938;DHT22;57248;47.320;15.998;2024-02-15T04:23:17;2.17;95.09
69938;DHT22;57248;47.320;15.998;2024-02-15T04:25:50;2.15;95.21
69938;DHT22;57248;47.320;15.998;2024-02-15T04:28:23;2.23;95.41
69938;DHT22;57248;47.320;15.998;2024-02-15T04:31:02;2.15;95.07
69938;DHT22;57248;47.320;15.998;2024-02-15T04:33:34;2.14;95.07
69938;DHT22;57248;47.320;15.998;2024-02-15T04:36:14;2.14;95.91
69938;DHT22;57248;47.320;15.998;2024-02-15T04:38:43;2.18;95.45
69938;DHT22;57248;47.320;15.998;2024-02-15T04:41:16;2.20;95.20
69938;DHT22;57248;47.320;15.998;2024-02-15T04:43:54;2.11;94.77
69938;DHT22;57248;47.320;15.998;2024-02-15T04:46:26;2.04;94.69
69938;DHT22;57248;47.320;15.998;2024-02-15T04:48:58;2.09;95.07
69938;DHT22;57248;47.320;15.998;2024-02-15T04:51:34;2.04;95.39
69938;DHT22;57248;47.320;15.998;2024-02-15T04:54:08;2.11;95.21
69938;DHT22;57248;47.320;15.998;2024-02-15T04:56:40;2.10;95.20
69938;DHT22;57248;47.320;15.998;2024-02-15T04:59:12;2.10;95.26
69938;DHT22;57248;47.320;15.998;2024-02-15T05:01:47;2.10;95.31
69938;DHT22;57248;47.320;15.998;2024-02-15T05:04:20;2.14;96.14
69938;DHT22;57248;47.320;15.998;2024-02-15T05:06:51;2.06;96.39
69938;DHT22;57248;47.320;15.998;2024-02-15T05:09:24;2.06;96.33
69938;DHT22;57248;47.320;15.998;2024-02-15T05:12:00;1.93;96.49
69938;DHT22;57248;47.320;15.998;2024-02-15T05:14:32;1.86;96.38
69938;DHT22;57248;47.320;15.998;2024-02-15T05:17:04;1.87;96.08
69938;DHT22;57248;47.320;15.998;2024-02-15T05:19:42;1.92;95.89
69938;DHT22;57248;47.320;15.998;2024-02-15T05:22:14;1.94;95.52
69938;DHT22;57248;47.320;15.998;2024-02-15T05:24:46;1.90;95.38
69938;DHT22;57248;47.320;15.998;2024-02-15T05:27:25;1.89;96.03
69938;DHT22;57248;47.320;15.998;2024-02-15T05:29:57;1.89;96.07
69938;DHT22;57248;47.320;15.998;2024-02-15T05:32:23;1.89;95.95
69938;DHT22;57248;47.320;15.998;2024-02-15T05:34:56;1.89;95.51
69938;DHT22;57248;47.320;15.998;2024-02-15T05:37:27;1.87;95.12
69938;DHT22;57248;47.320;15.998;2024-02-15T05:40:00;1.86;95.68
69938;DHT22;57248;47.320;15.998;2024-02-15T05:42:31;1.80;95.99
69938;DHT22;57248;47.320;15.998;2024-02-15T05:47:58;5.89;94.87
69938;DHT22;57248;47.320;15.998;2024-02-15T05:50:24;3.72;92.67
69938;DHT22;57248;47.320;15.998;2024-02-15T05:52:55;2.79;94.18
69938;DHT22;57248;47.320;15.998;2024-02-15T05:55:31;2.45;94.25
69938;DHT22;57248;47.320;15.998;2024-02-15T05:58:03;2.27;94.63
69938;DHT22;57248;47.320;15.998;2024-02-15T06:00:35;2.20;94.45
69938;DHT22;57248;47.320;15.998;2024-02-15T06:03:07;2.11;94.13
69938;DHT22;57248;47.320;15.998;2024-02-15T06:05:42;2.03;94.40
69938;DHT22;57248;47.320;15.998;2024-02-15T06:08:15;2.02;94.35
69938;DHT22;57248;47.320;15.998;2024-02-15T06:10:47;2.09;94.05
69938;DHT22;57248;47.320;15.998;2024-02-15T06:13:20;1.99;93.89
69938;DHT22;57248;47.320;15.998;2024-02-15T06:15:46;2.03;93.79
69938;DHT22;57248;47.320;15.998;2024-02-15T06:18:19;2.02;93.64
69938;DHT22;57248;47.320;15.998;2024-02-15T06:21:05;2.00;94.13
69938;DHT22;57248;47.320;15.998;2024-02-15T06:23:37;2.07;94.07
69938;DHT22;57248;47.320;15.998;2024-02-15T06:26:09;2.03;94.62
69938;DHT22;57248;47.320;15.998;2024-02-15T06:28:55;2.10;94.46
69938;DHT22;57248;47.320;15.998;2024-02-15T06:31:45;2.17;93.99
69938;DHT22;57248;47.320;15.998;2024-02-15T06:34:36;2.20;93.68
69938;DHT22;57248;47.320;15.998;2024-02-15T06:37:35;2.35;93.54
69938;DHT22;57248;47.320;15.998;2024-02-15T06:40:25;2.52;93.37
69938;DHT22;57248;47.320;15.998;2024-02-15T06:42:51;2.69;93.18
69938;DHT22;57248;47.320;15.998;2024-02-15T06:45:23;2.82;92.84
69938;DHT22;57248;47.320;15.998;2024-02-15T06:47:56;2.91;92.72
69938;DHT22;57248;47.320;15.998;2024-02-15T06:50:30;3.00;92.04
69938;DHT22;57248;47.320;15.998;2024-02-15T06:53:03;2.97;92.94
69938;DHT22;57248;47.320;15.998;2024-02-15T06:55:34;3.13;92.42
69938;DHT22;57248;47.320;15.998;2024-02-15T06:58:08;3.16;92.30
69938;DHT22;57248;47.320;15.998;2024-02-15T07:00:40;3.41;91.20
69938;DHT22;57248;47.320;15.998;2024-02-15T07:03:08;3.64;90.76
69938;DHT22;57248;47.320;15.998;2024-02-15T07:05:42;4.13;90.33
69938;DHT22;57248;47.320;15.998;2024-02-15T07:08:15;4.94;89.24
69938;DHT22;57248;47.320;15.998;2024-02-15T07:10:46;5.22;88.13
69938;DHT22;57248;47.320;15.998;2024-02-15T07:13:18;5.04;88.42
69938;DHT22;57248;47.320;15.998;2024-02-15T07:15:50;4.91;89.32
69938;DHT22;57248;47.320;15.998;2024-02-15T07:18:23;4.74;89.88
69938;DHT22;57248;47.320;15.998;2024-02-15T07:20:56;4.78;90.20
69938;DHT22;57248;47.320;15.998;2024-02-15T07:23:30;5.08;89.42
69938;DHT22;57248;47.320;15.998;2024-02-15T07:26:03;5.54;87.55
69938;DHT22;57248;47.320;15.998;2024-02-15T07:28:29;5.86;86.19
69938;DHT22;57248;47.320;15.998;2024-02-15T07:31:03;6.18;86.23
69938;DHT22;57248;47.320;15.998;2024-02-15T07:33:34;6.52;85.43
69938;DHT22;57248;47.320;15.998;2024-02-15T07:36:06;6.49;85.79
69938;DHT22;57248;47.320;15.998;2024-02-15T07:38:38;6.49;85.74
69938;DHT22;57248;47.320;15.998;2024-02-15T07:41:10;6.62;86.00
69938;DHT22;57248;47.320;15.998;2024-02-15T07:43:43;6.17;86.63
69938;DHT22;57248;47.320;15.998;2024-02-15T07:46:16;6.38;86.17
69938;DHT22;57248;47.320;15.998;2024-02-15T07:48:48;6.65;86.08
69938;DHT22;57248;47.320;15.998;2024-02-15T07:51:24;6.57;87.31
69938;DHT22;57248;47.320;15.998;2024-02-15T07:53:56;6.77;86.67
69938;DHT22;57248;47.320;15.998;2024-02-15T07:56:22;6.69;85.61
69938;DHT22;57248;47.320;15.998;2024-02-15T07:58:53;6.10;88.17
69938;DHT22;57248;47.320;15.998;2024-02-15T08:01:19;5.86;88.90
69938;DHT22;57248;47.320;15.998;2024-02-15T08:03:54;6.26;88.26
69938;DHT22;57248;47.320;15.998;2024-02-15T08:06:27;6.28;88.29
69938;DHT22;57248;47.320;15.998;2024-02-15T08:08:53;6.57;87.61
69938;DHT22;57248;47.320;15.998;2024-02-15T08:11:25;6.94;87.14
69938;DHT22;57248;47.320;15.998;2024-02-15T08:14:06;6.89;86.58
69938;DHT22;57248;47.320;15.998;2024-02-15T08:16:53;7.25;86.70
69938;DHT22;57248;47.320;15.998;2024-02-15T08:19:24;7.75;85.61
69938;DHT22;57248;47.320;15.998;2024-02-15T08:21:56;8.02;84.08
69938;DHT22;57248;47.320;15.998;2024-02-15T08:24:28;8.34;83.09
69938;DHT22;57248;47.320;15.998;2024-02-15T08:27:03;8.71;82.62
69938;DHT22;57248;47.320;15.998;2024-02-15T08:29:38;8.33;83.01
69938;DHT22;57248;47.320;15.998;2024-02-15T08:32:17;8.20;83.53
69938;DHT22;57248;47.320;15.998;2024-02-15T08:34:49;8.95;81.41
69938;DHT22;57248;47.320;15.998;2024-02-15T08:37:22;9.33;79.66
69938;DHT22;57248;47.320;15.998;2024-02-15T08:39:53;9.08;80.61
69938;DHT22;57248;47.320;15.998;2024-02-15T08:42:25;9.64;79.83
69938;DHT22;57248;47.320;15.998;2024-02-15T08:44:58;10.11;79.10
69938;DHT22;57248;47.320;15.998;2024-02-15T08:47:30;10.35;77.74
69938;DHT22;57248;47.320;15.998;2024-02-15T08:50:03;10.66;76.27
69938;DHT22;57248;47.320;15.998;2024-02-15T08:52:36;10.76;76.20
69938;DHT22;57248;47.320;15.998;2024-02-15T08:55:11;11.07;76.14
69938;DHT22;57248;47.320;15.998;2024-02-15T08:57:48;11.27;75.93
69938;DHT22;57248;47.320;15.998;2024-02-15T09:00:20;11.28;75.23
69938;DHT22;57248;47.320;15.998;2024-02-15T09:02:54;11.03;76.70
69938;DHT22;57248;47.320;15.998;2024-02-15T09:05:25;11.11;75.76
69938;DHT22;57248;47.320;15.998;2024-02-15T09:07:58;11.58;74.42
69938;DHT22;57248;47.320;15.998;2024-02-15T09:10:30;11.94;73.36
69938;DHT22;57248;47.320;15.998;2024-02-15T09:12:56;11.99;72.87
69938;DHT22;57248;47.320;15.998;2024-02-15T09:15:29;12.20;71.65
69938;DHT22;57248;47.320;15.998;2024-02-15T09:18:03;12.82;72.48
69938;DHT22;57248;47.320;15.998;2024-02-15T09:20:35;13.33;69.63
69938;DHT22;57248;47.320;15.998;2024-02-15T09:23:08;13.84;68.36
69938;DHT22;57248;47.320;15.998;2024-02-15T09:25:42;14.45;66.43
69938;DHT22;57248;47.320;15.998;2024-02-15T09:28:24;14.62;65.92
69938;DHT22;57248;47.320;15.998;2024-02-15T09:31:00;14.76;65.73
69938;DHT22;57248;47.320;15.998;2024-02-15T09:33:33;14.69;65.74
69938;DHT22;57248;47.320;15.998;2024-02-15T09:36:06;15.26;64.23
69938;DHT22;57248;47.320;15.998;2024-02-15T09:38:38;16.63;60.10
69938;DHT22;57248;47.320;15.998;2024-02-15T09:41:10;17.51;57.97
69938;DHT22;57248;47.320;15.998;2024-02-15T09:43:43;20.22;53.24
69938;DHT22;57248;47.320;15.998;2024-02-15T09:46:15;21.33;50.23
69938;DHT22;57248;47.320;15.998;2024-02-15T09:48:50;22.21;48.68
69938;DHT22;57248;47.320;15.998;2024-02-15T09:51:20;21.73;48.37
69938;DHT22;57248;47.320;15.998;2024-02-15T09:53:53;21.81;48.65
69938;DHT22;57248;47.320;15.998;2024-02-15T09:56:28;19.90;48.21
69938;DHT22;57248;47.320;15.998;2024-02-15T09:59:03;20.77;47.87
69938;DHT22;57248;47.320;15.998;2024-02-15T10:01:36;21.45;47.20
69938;DHT22;57248;47.320;15.998;2024-02-15T10:04:08;21.01;48.12
69938;DHT22;57248;47.320;15.998;2024-02-15T10:06:41;21.42;45.88
69938;DHT22;57248;47.320;15.998;2024-02-15T10:09:29;21.33;46.01
69938;DHT22;57248;47.320;15.998;2024-02-15T10:12:01;19.95;45.75
69938;DHT22;57248;47.320;15.998;2024-02-15T10:14:33;19.39;48.04
69938;DHT22;57248;47.320;15.998;2024-02-15T10:17:09;19.20;48.10
69938;DHT22;57248;47.320;15.998;2024-02-15T10:20:08;20.87;47.13
69938;DHT22;57248;47.320;15.998;2024-02-15T10:22:41;20.67;44.14
69938;DHT22;57248;47.320;15.998;2024-02-15T10:25:14;20.05;45.49
69938;DHT22;57248;47.320;15.998;2024-02-15T10:27:45;19.68;46.91
69938;DHT22;57248;47.320;15.998;2024-02-15T10:30:26;19.25;47.54
69938;DHT22;57248;47.320;15.998;2024-02-15T10:32:59;20.08;48.11
69938;DHT22;57248;47.320;15.998;2024-02-15T10:35:31;21.89;43.64
69938;DHT22;57248;47.320;15.998;2024-02-15T10:38:06;23.61;41.26
69938;DHT22;57248;47.320;15.998;2024-02-15T10:40:40;22.10;42.80
69938;DHT22;57248;47.320;15.998;2024-02-15T10:43:15;23.94;41.12
69938;DHT22;57248;47.320;15.998;2024-02-15T10:45:50;23.44;42.61
69938;DHT22;57248;47.320;15.998;2024-02-15T10:48:24;25.52;38.84
69938;DHT22;57248;47.320;15.998;2024-02-15T10:50:50;24.60;38.50
69938;DHT22;57248;47.320;15.998;2024-02-15T10:53:27;24.10;37.98
69938;DHT22;57248;47.320;15.998;2024-02-15T10:59:18;25.35;38.29
69938;DHT22;57248;47.320;15.998;2024-02-15T11:01:53;23.95;40.17
69938;DHT22;57248;47.320;15.998;2024-02-15T11:04:31;23.78;39.54
69938;DHT22;57248;47.320;15.998;2024-02-15T11:07:07;23.46;41.64
69938;DHT22;57248;47.320;15.998;2024-02-15T11:09:40;23.95;39.27
69938;DHT22;57248;47.320;15.998;2024-02-15T11:12:12;23.69;39.76
69938;DHT22;57248;47.320;15.998;2024-02-15T11:14:44;22.28;42.23
69938;DHT22;57248;47.320;15.998;2024-02-15T11:23:11;24.99;36.11
69938;DHT22;57248;47.320;15.998;2024-02-15T11:25:43;25.19;37.66
69938;DHT22;57248;47.320;15.998;2024-02-15T11:30:56;25.53;35.25
69938;DHT22;57248;47.320;15.998;2024-02-15T11:33:35;27.51;34.23
69938;DHT22;57248;47.320;15.998;2024-02-15T11:36:08;26.75;34.19
69938;DHT22;57248;47.320;15.998;2024-02-15T11:38:44;26.81;33.91
69938;DHT22;57248;47.320;15.998;2024-02-15T11:41:20;27.71;33.53
69938;DHT22;57248;47.320;15.998;2024-02-15T11:43:55;26.16;34.48
69938;DHT22;57248;47.320;15.998;2024-02-15T11:46:28;25.24;35.39
69938;DHT22;57248;47.320;15.998;2024-02-15T11:49:03;26.00;34.86
69938;DHT22;57248;47.320;15.998;2024-02-15T11:51:36;25.92;34.12
69938;DHT22;57248;47.320;15.998;2024-02-15T11:54:20;25.14;35.34
69938;DHT22;57248;47.320;15.998;2024-02-15T11:56:56;25.34;35.91
69938;DHT22;57248;47.320;15.998;2024-02-15T11:59:46;24.86;36.58
69938;DHT22;57248;47.320;15.998;2024-02-15T12:02:37;23.96;37.40
69938;DHT22;57248;47.320;15.998;2024-02-15T12:05:28;21.56;39.88
69938;DHT22;57248;47.320;15.998;2024-02-15T12:08:19;20.17;43.58
69938;DHT22;57248;47.320;15.998;2024-02-15T12:11:14;19.83;43.64
69938;DHT22;57248;47.320;15.998;2024-02-15T12:14:05;18.82;46.06
69938;DHT22;57248;47.320;15.998;2024-02-15T12:17:15;19.55;45.32
69938;DHT22;57248;47.320;15.998;2024-02-15T12:20:06;18.46;47.96
69938;DHT22;57248;47.320;15.998;2024-02-15T12:22:47;18.02;47.89
69938;DHT22;57248;47.320;15.998;2024-02-15T12:25:20;18.21;48.19
69938;DHT22;57248;47.320;15.998;2024-02-15T12:27:58;18.65;47.39
69938;DHT22;57248;47.320;15.998;2024-02-15T12:30:34;18.92;47.28
69938;DHT22;57248;47.320;15.998;2024-02-15T12:33:13;18.42;48.25
69938;DHT22;57248;47.320;15.998;2024-02-15T12:35:51;18.38;48.81
69938;DHT22;57248;47.320;15.998;2024-02-15T12:38:23;20.57;45.05
69938;DHT22;57248;47.320;15.998;2024-02-15T12:40:55;22.10;42.92
69938;DHT22;57248;47.320;15.998;2024-02-15T12:43:29;20.78;44.12
69938;DHT22;57248;47.320;15.998;2024-02-15T12:46:02;19.89;44.98
69938;DHT22;57248;47.320;15.998;2024-02-15T12:48:34;18.66;46.03
69938;DHT22;57248;47.320;15.998;2024-02-15T12:51:16;17.59;48.23
69938;DHT22;57248;47.320;15.998;2024-02-15T12:53:48;16.89;49.25
69938;DHT22;57248;47.320;15.998;2024-02-15T12:56:20;17.11;48.73
69938;DHT22;57248;47.320;15.998;2024-02-15T12:58:53;17.50;49.09
69938;DHT22;57248;47.320;15.998;2024-02-15T13:01:26;18.38;47.04
69938;DHT22;57248;47.320;15.998;2024-02-15T13:04:00;20.53;43.69
69938;DHT22;57248;47.320;15.998;2024-02-15T13:06:33;20.23;44.68
69938;DHT22;57248;47.320;15.998;2024-02-15T13:09:01;18.65;47.15
69938;DHT22;57248;47.320;15.998;2024-02-15T13:11:35;19.58;45.94
69938;DHT22;57248;47.320;15.998;2024-02-15T13:14:09;20.13;45.40
69938;DHT22;57248;47.320;15.998;2024-02-15T13:16:42;21.06;42.85
69938;DHT22;57248;47.320;15.998;2024-02-15T13:19:16;20.12;44.37
69938;DHT22;57248;47.320;15.998;2024-02-15T13:21:48;21.63;42.92
69938;DHT22;57248;47.320;15.998;2024-02-15T13:24:26;21.36;42.67
69938;DHT22;57248;47.320;15.998;2024-02-15T13:26:58;22.83;41.16
69938;DHT22;57248;47.320;15.998;2024-02-15T13:29:31;21.56;41.25
69938;DHT22;57248;47.320;15.998;2024-02-15T13:32:11;21.40;42.49
69938;DHT22;57248;47.320;15.998;2024-02-15T13:34:44;20.78;43.16
69938;DHT22;57248;47.320;15.998;2024-02-15T13:37:19;22.14;41.98
69938;DHT22;57248;47.320;15.998;2024-02-15T13:39:52;20.87;43.05
69938;DHT22;57248;47.320;15.998;2024-02-15T13:42:24;20.14;44.59
69938;DHT22;57248;47.320;15.998;2024-02-15T13:44:56;19.39;45.19
69938;DHT22;57248;47.320;15.998;2024-02-15T13:47:28;19.41;45.63
69938;DHT22;57248;47.320;15.998;2024-02-15T13:50:00;19.14;46.33
69938;DHT22;57248;47.320;15.998;2024-02-15T13:52:33;19.97;45.19
69938;DHT22;57248;47.320;15.998;2024-02-15T13:55:06;20.54;43.85
69938;DHT22;57248;47.320;15.998;2024-02-15T13:57:39;20.30;43.83
69938;DHT22;57248;47.320;15.998;2024-02-15T14:00:12;19.75;45.19
69938;DHT22;57248;47.320;15.998;2024-02-15T14:02:45;18.38;47.09
69938;DHT22;57248;47.320;15.998;2024-02-15T14:05:18;18.19;47.98
69938;DHT22;57248;47.320;15.998;2024-02-15T14:07:54;17.59;47.52
69938;DHT22;57248;47.320;15.998;2024-02-15T14:10:31;17.98;47.55
69938;DHT22;57248;47.320;15.998;2024-02-15T14:13:05;17.77;47.48
69938;DHT22;57248;47.320;15.998;2024-02-15T14:15:39;17.67;48.42
69938;DHT22;57248;47.320;15.998;2024-02-15T14:18:12;18.14;47.54
69938;DHT22;57248;47.320;15.998;2024-02-15T14:20:50;17.85;47.58
69938;DHT22;57248;47.320;15.998;2024-02-15T14:23:23;18.32;47.46
69938;DHT22;57248;47.320;15.998;2024-02-15T14:25:59;18.39;47.67
69938;DHT22;57248;47.320;15.998;2024-02-15T14:28:39;17.39;47.92
69938;DHT22;57248;47.320;15.998;2024-02-15T14:31:17;17.66;48.30
69938;DHT22;57248;47.320;15.998;2024-02-15T14:34:08;17.05;49.78
69938;DHT22;57248;47.320;15.998;2024-02-15T14:36:40;16.57;50.23
69938;DHT22;57248;47.320;15.998;2024-02-15T14:39:07;16.60;49.66
69938;DHT22;57248;47.320;15.998;2024-02-15T14:41:42;16.51;50.45
69938;DHT22;57248;47.320;15.998;2024-02-15T14:44:15;16.05;51.14
69938;DHT22;57248;47.320;15.998;2024-02-15T14:46:47;15.79;51.78
69938;DHT22;57248;47.320;15.998;2024-02-15T14:49:12;16.00;51.76
69938;DHT22;57248;47.320;15.998;2024-02-15T14:51:44;15.86;52.18
69938;DHT22;57248;47.320;15.998;2024-02-15T14:54:17;15.44;52.57
69938;DHT22;57248;47.320;15.998;2024-02-15T14:56:53;15.42;53.40
69938;DHT22;57248;47.320;15.998;2024-02-15T14:59:19;15.12;53.93
69938;DHT22;57248;47.320;15.998;2024-02-15T15:01:51;15.39;53.65
69938;DHT22;57248;47.320;15.998;2024-02-15T15:04:24;15.23;54.03
69938;DHT22;57248;47.320;15.998;2024-02-15T15:06:59;14.83;55.10
69938;DHT22;57248;47.320;15.998;2024-02-15T15:10:03;14.72;55.39
69938;DHT22;57248;47.320;15.998;2024-02-15T15:12:54;14.62;55.81
69938;DHT22;57248;47.320;15.998;2024-02-15T15:15:27;14.38;56.70
69938;DHT22;57248;47.320;15.998;2024-02-15T15:17:59;14.40;56.18
69938;DHT22;57248;47.320;15.998;2024-02-15T15:20:36;14.19;57.06
69938;DHT22;57248;47.320;15.998;2024-02-15T15:23:09;14.55;56.43
69938;DHT22;57248;47.320;15.998;2024-02-15T15:25:43;14.60;57.76
69938;DHT22;57248;47.320;15.998;2024-02-15T15:28:17;14.59;58.32
69938;DHT22;57248;47.320;15.998;2024-02-15T15:31:03;14.62;58.14
69938;DHT22;57248;47.320;15.998;2024-02-15T15:33:37;14.32;59.00
69938;DHT22;57248;47.320;15.998;2024-02-15T15:36:10;14.01;58.69
69938;DHT22;57248;47.320;15.998;2024-02-15T15:38:42;13.77;59.90
69938;DHT22;57248;47.320;15.998;2024-02-15T15:41:14;13.91;60.51
69938;DHT22;57248;47.320;15.998;2024-02-15T15:43:47;13.56;60.80
69938;DHT22;57248;47.320;15.998;2024-02-15T15:46:15;13.51;61.87
69938;DHT22;57248;47.320;15.998;2024-02-15T15:48:48;14.32;73.50
69938;DHT22;57248;47.320;15.998;2024-02-15T15:51:20;15.17;70.92
69938;DHT22;57248;47.320;15.998;2024-02-15T15:53:52;15.58;69.32
69938;DHT22;57248;47.320;15.998;2024-02-15T15:56:26;14.55;61.17
69938;DHT22;57248;47.320;15.998;2024-02-15T15:58:58;13.78;63.13
69938;DHT22;57248;47.320;15.998;2024-02-15T16:01:23;13.12;65.03
69938;DHT22;57248;47.320;15.998;2024-02-15T16:03:56;13.05;65.54
69938;DHT22;57248;47.320;15.998;2024-02-15T16:06:29;12.81;65.78
69938;DHT22;57248;47.320;15.998;2024-02-15T16:09:01;12.67;66.97
69938;DHT22;57248;47.320;15.998;2024-02-15T16:11:28;12.21;68.69
69938;DHT22;57248;47.320;15.998;2024-02-15T16:14:01;12.14;69.11
69938;DHT22;57248;47.320;15.998;2024-02-15T16:16:33;12.04;69.02
69938;DHT22;57248;47.320;15.998;2024-02-15T16:19:12;14.35;73.12
69938;DHT22;57248;47.320;15.998;2024-02-15T16:21:44;15.26;68.47